Kalengwa Airport


Codes: FLKG/
Name: Kalengwa Airport
City: Kalengwa
Country: Zambia
Elevation: 4093 ft.

Photos at Kalengwa Airport


   Photos courtesy of SpottingLog. You can add your own sightings and photos by signing up for a free trial today.



No photos found.

Weather at Kalengwa Airport


Time (UTC)DescriptionTempratureWindCloud coverageVisibilityPressureHumidity
15-Apr-2024 18:00Light Rain23°C4 mph, SE100%10000m1014hPa75%
15-Apr-2024 21:00Overcast Clouds21°C4 mph, SE100%10000m1015hPa78%
16-Apr-2024 00:00Overcast Clouds20°C4 mph, SE100%10000m1015hPa80%
16-Apr-2024 03:00Overcast Clouds20°C7 mph, E100%10000m1015hPa76%
16-Apr-2024 06:00Overcast Clouds20°C9 mph, NE94%10000m1017hPa76%
16-Apr-2024 09:00Few Clouds26°C9 mph, NE20%10000m1016hPa52%
16-Apr-2024 12:00Clear Sky29°C4 mph, E10%10000m1012hPa41%
16-Apr-2024 15:00Scattered Clouds26°C4 mph, E36%10000m1011hPa57%
16-Apr-2024 18:00Broken Clouds23°C7 mph, E66%10000m1013hPa59%
16-Apr-2024 21:00Broken Clouds21°C4 mph, NE70%10000m1014hPa66%
17-Apr-2024 00:00Broken Clouds20°C7 mph, E81%10000m1014hPa72%
17-Apr-2024 03:00Broken Clouds17°C4 mph, E68%10000m1015hPa85%
17-Apr-2024 06:00Scattered Clouds20°C7 mph, E35%10000m1017hPa72%
17-Apr-2024 09:00Clear Sky26°C9 mph, E0%10000m1015hPa50%
17-Apr-2024 12:00Clear Sky29°C7 mph, E0%10000m1012hPa39%
17-Apr-2024 15:00Clear Sky27°C4 mph, E4%10000m1011hPa51%
17-Apr-2024 18:00Scattered Clouds22°C4 mph, E29%10000m1014hPa65%
17-Apr-2024 21:00Broken Clouds20°C7 mph, E57%10000m1016hPa69%
18-Apr-2024 00:00Scattered Clouds20°C7 mph, E32%10000m1015hPa72%
18-Apr-2024 03:00Broken Clouds20°C7 mph, E83%10000m1015hPa72%
18-Apr-2024 06:00Scattered Clouds20°C7 mph, E42%10000m1018hPa73%
18-Apr-2024 09:00Clear Sky27°C7 mph, E0%10000m1016hPa48%
18-Apr-2024 12:00Clear Sky30°C7 mph, E1%10000m1012hPa37%
18-Apr-2024 15:00Broken Clouds26°C7 mph, E55%10000m1012hPa53%
18-Apr-2024 18:00Broken Clouds21°C4 mph, NE73%10000m1015hPa71%
18-Apr-2024 21:00Scattered Clouds19°C7 mph, SE49%10000m1016hPa74%
19-Apr-2024 00:00Broken Clouds19°C7 mph, SE67%10000m1015hPa78%
19-Apr-2024 03:00Broken Clouds16°C4 mph, E81%10000m1015hPa92%
19-Apr-2024 06:00Overcast Clouds19°C7 mph, SE90%10000m1017hPa76%
19-Apr-2024 09:00Clear Sky27°C11 mph, E4%10000m1015hPa48%
19-Apr-2024 12:00Clear Sky30°C9 mph, E4%10000m1011hPa35%
19-Apr-2024 15:00Broken Clouds28°C7 mph, E62%10000m1010hPa44%
19-Apr-2024 18:00Broken Clouds22°C4 mph, E65%10000m1013hPa60%
19-Apr-2024 21:00Scattered Clouds19°C4 mph, SE28%10000m1014hPa73%
20-Apr-2024 00:00Broken Clouds17°C4 mph, SE52%10000m1014hPa78%
20-Apr-2024 03:00Overcast Clouds16°C4 mph, NE90%10000m1014hPa83%
20-Apr-2024 06:00Overcast Clouds19°C4 mph, E95%10000m1015hPa71%
20-Apr-2024 09:00Overcast Clouds26°C9 mph, E100%10000m1014hPa49%
20-Apr-2024 12:00Overcast Clouds29°C9 mph, E100%10000m1011hPa36%
20-Apr-2024 15:00Overcast Clouds26°C4 mph, NE100%10000m1010hPa54%